Time;durP1;ratioP1;P1;durP2;ratioP2;P2;SDS_P1;SDS_P2;PMS_P1;PMS_P2;Temp;Humidity;BMP_temperature;BMP_pressure;BME280_temperature;BME280_humidity;BME280_pressure;Samples;Min_cycle;Max_cycle;Signal;HPM_P1;HPM_P2
2022/02/18 00:00:43;;;;;;;10.70;2.58;;;7.40;99.90;;;;;;5024571;28;20032;-44
2022/02/18 00:03:09;;;;;;;9.63;2.33;;;7.40;99.90;;;;;;5024135;28;20092;-44
2022/02/18 00:05:35;;;;;;;12.23;2.65;;;7.40;99.90;;;;;;5024555;28;20083;-44
2022/02/18 00:08:00;;;;;;;8.85;2.08;;;7.40;99.90;;;;;;5023901;28;20587;-43
2022/02/18 00:10:26;;;;;;;14.50;2.85;;;7.40;99.90;;;;;;5024477;28;20080;-42
2022/02/18 00:12:52;;;;;;;15.23;3.00;;;7.40;99.90;;;;;;5025699;28;20031;-43
2022/02/18 00:15:17;;;;;;;10.10;2.47;;;7.40;99.90;;;;;;5023885;28;20021;-44
2022/02/18 00:17:43;;;;;;;10.48;2.50;;;7.40;99.90;;;;;;5024388;28;20038;-42
2022/02/18 00:20:09;;;;;;;18.27;2.95;;;7.40;99.90;;;;;;5024899;28;20014;-44
2022/02/18 00:22:35;;;;;;;12.38;2.65;;;7.40;99.90;;;;;;5026224;28;20067;-45
2022/02/18 00:25:01;;;;;;;17.08;3.00;;;7.40;99.90;;;;;;5028819;28;20021;-43
2022/02/18 00:27:27;;;;;;;10.52;3.03;;;7.40;99.90;;;;;;5028234;28;20080;-43
2022/02/18 00:29:52;;;;;;;13.27;3.10;;;7.40;99.90;;;;;;5027682;28;20476;-43
2022/02/18 00:32:18;;;;;;;11.23;2.72;;;7.50;99.90;;;;;;5028228;28;20031;-43
2022/02/18 00:34:43;;;;;;;14.32;2.83;;;7.50;99.90;;;;;;5027283;28;20065;-45
2022/02/18 00:37:09;;;;;;;13.25;2.60;;;7.50;99.90;;;;;;5028443;28;20052;-43
2022/02/18 00:39:34;;;;;;;15.70;2.53;;;7.50;99.90;;;;;;5028095;28;20091;-43
2022/02/18 00:42:00;;;;;;;8.10;2.10;;;7.50;99.90;;;;;;5027758;28;20025;-42
2022/02/18 00:44:26;;;;;;;10.88;2.45;;;7.50;99.90;;;;;;5028135;28;20428;-43
2022/02/18 00:46:52;;;;;;;15.48;2.80;;;7.60;99.90;;;;;;5028680;28;20025;-43
2022/02/18 00:49:19;;;;;;;14.38;2.33;;;7.60;99.90;;;;;;5026906;28;20116;-42
2022/02/18 00:51:44;;;;;;;10.18;2.33;;;7.60;99.90;;;;;;5028423;28;20052;-42
2022/02/18 00:54:10;;;;;;;12.63;2.25;;;7.60;99.90;;;;;;5027629;28;20556;-43
2022/02/18 00:56:39;;;;;;;10.88;2.40;;;7.60;99.90;;;;;;5026838;28;20025;-43
2022/02/18 00:59:08;;;;;;;7.90;1.80;;;7.60;99.90;;;;;;5027991;28;20057;-43
2022/02/18 01:01:34;;;;;;;9.73;2.38;;;7.60;99.90;;;;;;5027743;28;20029;-44
2022/02/18 01:04:01;;;;;;;8.13;2.22;;;7.60;99.90;;;;;;5027289;28;20033;-43
2022/02/18 01:06:26;;;;;;;9.40;2.55;;;7.60;99.90;;;;;;5027165;28;20060;-42
2022/02/18 01:08:52;;;;;;;6.82;1.90;;;7.50;99.90;;;;;;5028069;28;20029;-42
2022/02/18 01:11:19;;;;;;;8.23;2.38;;;7.50;99.90;;;;;;5026369;28;20025;-43
2022/02/18 01:13:45;;;;;;;7.15;2.35;;;7.50;99.90;;;;;;5028842;28;20081;-43
2022/02/18 01:16:10;;;;;;;10.70;2.17;;;7.50;99.90;;;;;;5027356;28;20026;-42
2022/02/18 01:18:36;;;;;;;9.50;2.05;;;7.50;99.90;;;;;;5026595;28;20041;-43
2022/02/18 01:21:02;;;;;;;8.90;1.88;;;7.40;99.90;;;;;;5027302;28;20124;-42
2022/02/18 01:23:28;;;;;;;9.55;2.50;;;7.40;99.90;;;;;;5027640;28;20053;-42
2022/02/18 01:25:53;;;;;;;8.23;1.90;;;7.40;99.90;;;;;;5026604;28;20052;-44
2022/02/18 01:28:19;;;;;;;9.52;2.10;;;7.40;99.90;;;;;;5027017;28;20169;-42
2022/02/18 01:30:44;;;;;;;9.63;2.03;;;7.30;99.90;;;;;;5027187;28;20115;-43
2022/02/18 01:33:10;;;;;;;6.70;1.92;;;7.40;99.90;;;;;;5025100;28;20429;-43
2022/02/18 01:35:36;;;;;;;10.35;1.90;;;7.40;99.90;;;;;;5026792;28;20033;-43
2022/02/18 01:38:03;;;;;;;7.95;1.92;;;7.40;99.90;;;;;;5026456;28;20045;-43
2022/02/18 01:40:30;;;;;;;7.07;1.77;;;7.30;99.90;;;;;;5026556;28;20025;-42
2022/02/18 01:42:56;;;;;;;10.10;2.33;;;7.40;99.90;;;;;;5026663;28;20022;-42
2022/02/18 01:45:22;;;;;;;6.45;1.88;;;7.30;99.90;;;;;;5025805;28;20426;-43
2022/02/18 01:47:47;;;;;;;11.43;2.08;;;7.30;99.90;;;;;;5027060;28;20137;-44
2022/02/18 01:50:13;;;;;;;10.55;2.17;;;7.30;99.90;;;;;;5027357;28;20128;-42
2022/02/18 01:52:45;;;;;;;10.07;2.03;;;7.30;99.90;;;;;;5025771;28;20028;-44
2022/02/18 01:55:13;;;;;;;10.60;2.22;;;7.30;99.90;;;;;;5026877;28;20036;-42
2022/02/18 01:57:49;;;;;;;7.90;1.88;;;7.30;99.90;;;;;;5027057;28;20033;-43
2022/02/18 02:00:17;;;;;;;7.07;1.90;;;7.40;99.90;;;;;;5025704;28;20423;-43
2022/02/18 02:02:43;;;;;;;9.70;1.80;;;7.40;99.90;;;;;;5026412;28;20160;-44
2022/02/18 02:05:10;;;;;;;10.07;2.40;;;7.40;99.90;;;;;;5027236;28;20026;-42
2022/02/18 02:07:37;;;;;;;8.00;2.28;;;7.40;99.90;;;;;;5025407;28;20567;-42
2022/02/18 02:10:04;;;;;;;8.55;1.80;;;7.40;99.90;;;;;;5027086;28;20026;-42
2022/02/18 02:12:29;;;;;;;7.35;1.95;;;7.40;99.90;;;;;;5026401;28;20014;-42
2022/02/18 02:14:55;;;;;;;9.55;2.10;;;7.50;99.90;;;;;;5026047;28;20028;-42
2022/02/18 02:17:21;;;;;;;11.45;2.13;;;7.50;99.90;;;;;;5026127;28;20370;-43
2022/02/18 02:19:46;;;;;;;7.88;1.73;;;7.50;99.90;;;;;;5026534;28;20105;-43
2022/02/18 02:22:16;;;;;;;11.93;2.13;;;7.60;99.90;;;;;;5025391;28;20375;-42
2022/02/18 02:24:42;;;;;;;11.85;2.30;;;7.60;99.90;;;;;;5026904;28;20025;-43
2022/02/18 02:27:07;;;;;;;7.75;1.92;;;7.60;99.90;;;;;;5025697;28;20033;-43
2022/02/18 02:29:33;;;;;;;8.00;1.70;;;7.60;99.90;;;;;;5025901;28;20049;-43
2022/02/18 02:31:59;;;;;;;10.20;2.10;;;7.70;99.90;;;;;;5026011;28;20465;-43
2022/02/18 02:34:25;;;;;;;11.50;2.58;;;7.60;99.90;;;;;;5024394;28;20033;-42
2022/02/18 02:36:51;;;;;;;8.73;1.65;;;7.60;99.90;;;;;;5026283;28;20037;-42
2022/02/18 02:39:16;;;;;;;6.70;1.70;;;7.70;99.90;;;;;;5024719;28;20033;-42
2022/02/18 02:41:42;;;;;;;10.07;2.13;;;7.60;99.90;;;;;;5025795;28;20025;-43
2022/02/18 02:44:07;;;;;;;10.18;2.00;;;7.70;99.90;;;;;;5025142;28;20033;-43
2022/02/18 02:46:35;;;;;;;6.88;1.85;;;7.70;99.90;;;;;;5026274;28;20829;-42
2022/02/18 02:49:01;;;;;;;11.82;2.10;;;7.70;99.90;;;;;;5024875;28;20436;-43
2022/02/18 02:51:26;;;;;;;7.50;1.90;;;7.70;99.90;;;;;;5025684;28;20033;-42
2022/02/18 02:53:52;;;;;;;7.97;2.03;;;7.70;99.90;;;;;;5025856;28;20027;-43
2022/02/18 02:56:17;;;;;;;7.75;1.50;;;7.70;99.90;;;;;;5024495;28;20560;-43
2022/02/18 02:58:43;;;;;;;9.25;1.90;;;7.70;99.90;;;;;;5025561;28;20198;-43
2022/02/18 03:01:08;;;;;;;6.50;1.90;;;7.70;99.90;;;;;;5026064;28;20025;-43
2022/02/18 03:03:34;;;;;;;10.05;2.13;;;7.70;99.90;;;;;;5024752;28;20036;-43
2022/02/18 03:05:59;;;;;;;6.82;1.90;;;7.70;99.90;;;;;;5026277;28;20546;-43
2022/02/18 03:08:25;;;;;;;5.03;1.63;;;7.70;99.90;;;;;;5024965;28;20495;-42
2022/02/18 03:13:35;;;;;;;8.60;2.42;;;7.70;99.90;;;;;;5025661;28;20452;-43
2022/02/18 03:16:01;;;;;;;6.13;2.10;;;7.70;99.90;;;;;;5025016;28;20527;-42
2022/02/18 03:18:26;;;;;;;6.43;1.95;;;7.70;99.90;;;;;;5024123;28;20033;-43
2022/02/18 03:20:52;;;;;;;9.73;2.35;;;7.70;99.90;;;;;;5025330;28;20034;-43
2022/02/18 03:23:17;;;;;;;9.55;2.42;;;7.70;99.90;;;;;;5025228;28;20072;-42
2022/02/18 03:25:43;;;;;;;8.80;2.22;;;7.70;99.90;;;;;;5024514;28;20053;-42
2022/02/18 03:28:08;;;;;;;10.65;2.92;;;7.70;99.90;;;;;;5025411;28;20037;-44
2022/02/18 03:30:34;;;;;;;11.95;2.65;;;7.70;99.90;;;;;;5023955;28;20040;-43
2022/02/18 03:33:00;;;;;;;10.73;2.90;;;7.70;99.90;;;;;;5025334;28;20045;-42
2022/02/18 03:35:26;;;;;;;11.93;3.20;;;7.70;99.90;;;;;;5024571;28;20141;-43
2022/02/18 03:37:51;;;;;;;7.68;2.53;;;7.70;99.90;;;;;;5024690;28;20076;-43
2022/02/18 03:40:17;;;;;;;11.57;3.00;;;7.70;99.90;;;;;;5024634;28;20113;-43
2022/02/18 03:42:42;;;;;;;11.70;3.10;;;7.70;99.90;;;;;;5025515;28;20125;-43
2022/02/18 03:45:08;;;;;;;9.55;2.63;;;7.70;99.90;;;;;;5023898;28;20100;-43
2022/02/18 03:47:34;;;;;;;10.23;2.30;;;7.70;99.90;;;;;;5025277;28;20040;-42
2022/02/18 03:49:59;;;;;;;10.95;2.42;;;7.80;99.90;;;;;;5025065;28;20022;-43
2022/02/18 03:52:25;;;;;;;13.90;2.70;;;7.80;99.90;;;;;;5023911;28;20092;-43
2022/02/18 03:54:50;;;;;;;8.45;2.13;;;7.80;99.90;;;;;;5025543;28;20030;-43
2022/02/18 03:57:16;;;;;;;8.27;2.60;;;7.80;99.90;;;;;;5026565;28;20044;-44
2022/02/18 03:59:41;;;;;;;12.82;2.85;;;7.80;99.90;;;;;;5028155;28;20032;-43
2022/02/18 04:02:07;;;;;;;12.48;2.63;;;7.90;99.90;;;;;;5028517;28;20429;-46
2022/02/18 04:04:33;;;;;;;11.20;2.72;;;7.80;99.90;;;;;;5029291;28;20029;-42
2022/02/18 04:06:58;;;;;;;10.07;2.58;;;7.80;99.90;;;;;;5027692;28;20136;-43
2022/02/18 04:09:24;;;;;;;13.23;2.35;;;7.80;99.90;;;;;;5028821;28;20030;-42
2022/02/18 04:11:49;;;;;;;12.43;3.00;;;7.80;99.90;;;;;;5028818;28;20076;-43
2022/02/18 04:14:15;;;;;;;10.02;2.78;;;7.80;99.90;;;;;;5027480;28;20365;-42
2022/02/18 04:16:40;;;;;;;10.98;2.60;;;7.80;99.90;;;;;;5028700;28;20041;-44
2022/02/18 04:19:06;;;;;;;12.93;3.22;;;7.80;99.90;;;;;;5029287;28;20083;-43
2022/02/18 04:21:31;;;;;;;18.58;3.00;;;7.80;99.90;;;;;;5027241;28;20014;-43
2022/02/18 04:23:57;;;;;;;14.07;3.03;;;7.80;99.90;;;;;;5028376;28;20060;-42
2022/02/18 04:26:22;;;;;;;14.98;3.42;;;7.80;99.90;;;;;;5028065;28;20025;-44
2022/02/18 04:28:48;;;;;;;15.52;2.78;;;7.90;99.90;;;;;;5027761;28;20025;-42
2022/02/18 04:31:14;;;;;;;12.10;2.53;;;7.80;99.90;;;;;;5028165;28;20071;-42
2022/02/18 04:33:40;;;;;;;13.45;3.38;;;7.80;99.90;;;;;;5028115;28;20156;-43
2022/02/18 04:36:05;;;;;;;15.30;3.10;;;7.80;99.90;;;;;;5027735;28;20026;-42
2022/02/18 04:38:31;;;;;;;7.78;2.22;;;7.80;99.90;;;;;;5027778;28;20033;-43
2022/02/18 04:40:58;;;;;;;11.27;2.70;;;7.80;99.90;;;;;;5027934;28;20045;-42
2022/02/18 04:43:24;;;;;;;10.13;2.45;;;7.90;99.90;;;;;;5027842;28;20075;-42
2022/02/18 04:45:49;;;;;;;16.98;2.88;;;7.90;99.90;;;;;;5028961;28;20022;-43
2022/02/18 04:48:15;;;;;;;11.73;2.60;;;7.90;99.90;;;;;;5027349;28;20075;-43
2022/02/18 04:50:41;;;;;;;14.05;2.25;;;7.90;99.90;;;;;;5028541;28;20160;-43
2022/02/18 04:53:06;;;;;;;10.45;2.30;;;7.90;99.90;;;;;;5028280;28;20025;-43
2022/02/18 04:55:32;;;;;;;6.60;1.95;;;7.90;99.90;;;;;;5026893;28;20029;-42
2022/02/18 04:57:57;;;;;;;17.17;3.00;;;7.90;99.90;;;;;;5027353;28;20144;-42
2022/02/18 05:00:23;;;;;;;14.35;2.80;;;7.90;99.90;;;;;;5027999;28;20033;-42
2022/02/18 05:02:48;;;;;;;18.02;3.45;;;7.90;99.90;;;;;;5027466;28;20057;-43
2022/02/18 05:05:15;;;;;;;17.48;3.13;;;7.90;99.90;;;;;;5027871;28;20033;-44
2022/02/18 05:07:40;;;;;;;23.55;3.75;;;7.90;99.90;;;;;;5027175;28;20128;-43
2022/02/18 05:10:07;;;;;;;18.52;4.10;;;7.90;99.90;;;;;;5027601;28;20113;-43
2022/02/18 05:12:33;;;;;;;16.38;3.97;;;8.00;99.90;;;;;;5027154;28;20128;-43
2022/02/18 05:14:58;;;;;;;13.85;3.58;;;7.90;99.90;;;;;;5027699;28;20760;-43
2022/02/18 05:17:24;;;;;;;11.38;2.80;;;7.90;99.90;;;;;;5026277;28;20057;-42
2022/02/18 05:19:49;;;;;;;15.88;3.90;;;8.00;99.90;;;;;;5027690;28;20021;-43
2022/02/18 05:22:15;;;;;;;16.98;3.72;;;8.00;99.90;;;;;;5027295;28;20022;-43
2022/02/18 05:24:40;;;;;;;16.90;4.00;;;8.00;99.90;;;;;;5026619;28;20021;-44
2022/02/18 05:27:06;;;;;;;22.38;3.67;;;8.00;99.90;;;;;;5027589;28;20025;-42
2022/02/18 05:29:31;;;;;;;21.38;3.75;;;8.00;99.90;;;;;;5026782;28;20665;-43
2022/02/18 05:31:59;;;;;;;15.13;3.13;;;8.00;99.90;;;;;;5027231;28;20112;-42
2022/02/18 05:34:25;;;;;;;18.60;3.60;;;8.10;99.90;;;;;;5026324;28;20057;-43
2022/02/18 05:36:50;;;;;;;23.67;4.10;;;8.10;99.90;;;;;;5027820;28;20033;-44
2022/02/18 05:39:16;;;;;;;17.77;2.90;;;8.10;99.90;;;;;;5025820;28;20041;-44
2022/02/18 05:41:41;;;;;;;19.20;3.42;;;8.10;99.90;;;;;;5027709;28;20030;-42
2022/02/18 05:44:07;;;;;;;19.52;3.95;;;8.10;99.90;;;;;;5026428;28;20099;-43
2022/02/18 05:46:32;;;;;;;12.18;2.90;;;8.10;99.90;;;;;;5026880;28;20029;-42
2022/02/18 05:48:58;;;;;;;13.75;3.40;;;8.10;99.90;;;;;;5027097;28;20017;-43
2022/02/18 05:51:23;;;;;;;17.90;3.58;;;8.20;99.90;;;;;;5026139;28;20026;-43
2022/02/18 05:53:49;;;;;;;15.93;3.50;;;8.10;99.90;;;;;;5026772;28;20029;-41
2022/02/18 05:56:14;;;;;;;18.65;3.83;;;8.10;99.90;;;;;;5026802;28;20068;-43
2022/02/18 05:58:42;;;;;;;12.25;3.22;;;8.20;99.90;;;;;;5025746;28;20044;-42
2022/02/18 06:01:07;;;;;;;10.13;2.38;;;8.20;99.90;;;;;;5026842;28;20389;-43
2022/02/18 06:03:33;;;;;;;22.02;3.58;;;8.20;99.90;;;;;;5027154;28;20550;-43
2022/02/18 06:05:58;;;;;;;22.95;5.18;;;8.20;99.90;;;;;;5025760;28;20022;-43
2022/02/18 06:08:24;;;;;;;16.83;3.90;;;8.20;99.90;;;;;;5026814;28;20476;-43
2022/02/18 06:10:49;;;;;;;26.13;4.50;;;8.20;99.90;;;;;;5026582;28;20028;-43
2022/02/18 06:13:15;;;;;;;16.92;3.38;;;8.20;99.90;;;;;;5025720;28;20020;-43
2022/02/18 06:15:40;;;;;;;17.27;4.15;;;8.20;99.90;;;;;;5026363;28;20029;-43
2022/02/18 06:18:06;;;;;;;17.75;3.70;;;8.20;99.90;;;;;;5026787;28;20041;-43
2022/02/18 06:20:31;;;;;;;25.80;4.25;;;8.20;99.90;;;;;;5024337;28;20022;-43
2022/02/18 06:22:57;;;;;;;15.25;3.92;;;8.20;99.90;;;;;;5026889;28;20488;-43
2022/02/18 06:25:22;;;;;;;18.60;4.10;;;8.20;99.90;;;;;;5025636;28;20026;-42
2022/02/18 06:27:48;;;;;;;20.98;4.15;;;8.20;99.90;;;;;;5025782;28;20037;-43
2022/02/18 06:30:13;;;;;;;17.25;3.38;;;8.20;99.90;;;;;;5025982;28;20037;-43
2022/02/18 06:32:39;;;;;;;19.05;3.90;;;8.20;99.90;;;;;;5015625;28;20076;-43
2022/02/18 06:35:05;;;;;;;17.95;3.88;;;8.20;99.90;;;;;;5025368;28;20508;-42
2022/02/18 06:37:30;;;;;;;18.33;4.13;;;8.20;99.90;;;;;;5026018;28;20065;-42
2022/02/18 06:39:56;;;;;;;18.52;3.63;;;8.10;99.90;;;;;;5026743;28;20022;-43
2022/02/18 06:42:21;;;;;;;16.25;3.58;;;8.10;99.90;;;;;;5025166;28;20808;-42
2022/02/18 06:44:47;;;;;;;15.63;3.92;;;8.10;99.90;;;;;;5026815;28;20030;-42
2022/02/18 06:47:12;;;;;;;16.33;3.30;;;8.10;99.90;;;;;;5025488;28;20030;-43
2022/02/18 06:49:38;;;;;;;15.57;3.55;;;8.10;99.90;;;;;;5025175;28;20037;-43
2022/02/18 06:52:04;;;;;;;15.20;3.38;;;8.00;99.90;;;;;;5026254;28;20029;-44
2022/02/18 06:54:31;;;;;;;16.80;3.90;;;8.00;99.90;;;;;;5024814;28;20128;-42
2022/02/18 06:57:01;;;;;;;16.83;3.97;;;8.00;99.90;;;;;;5025764;28;20190;-42
2022/02/18 06:59:27;;;;;;;19.42;4.63;;;8.00;99.90;;;;;;5025179;28;20033;-43
2022/02/18 07:01:54;;;;;;;19.50;3.90;;;8.00;99.90;;;;;;5024501;28;20606;-43
2022/02/18 07:04:24;;;;;;;17.02;3.42;;;8.00;99.90;;;;;;5025668;28;20080;-42
2022/02/18 07:06:50;;;;;;;16.08;3.40;;;8.00;99.90;;;;;;5025352;28;20045;-43
2022/02/18 07:09:16;;;;;;;15.20;3.45;;;8.00;99.90;;;;;;5025261;28;20463;-42
2022/02/18 07:11:42;;;;;;;20.63;4.25;;;8.00;99.90;;;;;;5025116;28;20022;-43
2022/02/18 07:14:11;;;;;;;15.65;3.38;;;8.00;99.90;;;;;;5025407;28;20053;-44
2022/02/18 07:16:41;;;;;;;18.48;3.60;;;8.00;99.90;;;;;;5024238;28;20022;-43
2022/02/18 07:19:10;;;;;;;20.00;3.92;;;8.00;99.90;;;;;;5025819;28;20124;-44
2022/02/18 07:21:37;;;;;;;19.40;3.42;;;8.00;99.90;;;;;;5025300;28;20091;-43
2022/02/18 07:24:05;;;;;;;15.63;3.45;;;8.00;99.90;;;;;;5024820;28;20025;-43
2022/02/18 07:26:31;;;;;;;17.02;3.10;;;8.00;99.90;;;;;;5025416;28;20145;-43
2022/02/18 07:28:56;;;;;;;15.85;3.15;;;8.10;99.90;;;;;;5024099;28;20044;-43
2022/02/18 07:31:22;;;;;;;12.43;3.10;;;8.10;99.90;;;;;;5024663;28;20096;-43
2022/02/18 07:33:47;;;;;;;19.58;3.20;;;8.10;99.90;;;;;;5025918;28;20021;-43
2022/02/18 07:36:13;;;;;;;14.38;3.63;;;8.20;99.90;;;;;;5025385;28;20228;-42
2022/02/18 07:38:38;;;;;;;13.15;3.50;;;8.10;99.90;;;;;;5023933;28;20037;-42
2022/02/18 07:41:04;;;;;;;16.95;3.78;;;8.20;99.90;;;;;;5025573;28;20030;-43
2022/02/18 07:43:29;;;;;;;11.88;2.90;;;8.20;99.90;;;;;;5024498;28;20033;-43
2022/02/18 07:45:58;;;;;;;11.43;3.35;;;8.20;99.90;;;;;;5024967;28;20033;-43
2022/02/18 07:48:24;;;;;;;14.10;3.35;;;8.30;99.90;;;;;;5024635;28;20104;-42
2022/02/18 07:50:49;;;;;;;14.40;3.50;;;8.30;99.90;;;;;;5025106;28;20461;-42
2022/02/18 07:53:15;;;;;;;16.10;3.75;;;8.30;99.90;;;;;;5024223;28;20041;-42
2022/02/18 07:55:41;;;;;;;16.27;3.50;;;8.30;99.90;;;;;;5025613;28;20026;-42
2022/02/18 07:58:06;;;;;;;13.23;3.70;;;8.30;99.90;;;;;;5024084;28;20114;-43
2022/02/18 08:00:33;;;;;;;17.27;4.50;;;8.30;99.90;;;;;;5024327;28;20025;-43
2022/02/18 08:02:59;;;;;;;12.18;3.72;;;8.40;99.90;;;;;;5025277;28;20117;-42
2022/02/18 08:05:25;;;;;;;10.15;2.88;;;8.40;99.90;;;;;;5024004;28;20159;-43
2022/02/18 08:07:50;;;;;;;13.50;3.63;;;8.40;99.90;;;;;;5025268;28;20518;-43
2022/02/18 08:10:16;;;;;;;11.32;3.60;;;8.50;99.90;;;;;;5024349;28;20029;-42
2022/02/18 08:12:41;;;;;;;16.92;4.15;;;8.50;99.90;;;;;;5024749;28;20022;-43
2022/02/18 08:15:07;;;;;;;14.57;3.97;;;8.50;99.90;;;;;;5024709;28;20021;-44
2022/02/18 08:17:37;;;;;;;15.65;3.60;;;8.60;99.90;;;;;;5025141;28;20128;-43
2022/02/18 08:20:04;;;;;;;14.20;4.28;;;8.60;99.90;;;;;;5024014;28;20036;-43
2022/02/18 08:22:30;;;;;;;16.45;3.65;;;8.60;99.90;;;;;;5024834;28;20037;-43
2022/02/18 08:24:55;;;;;;;12.20;3.63;;;8.70;99.90;;;;;;5024639;28;20040;-43
2022/02/18 08:27:21;;;;;;;15.45;3.75;;;8.70;99.90;;;;;;5024097;28;20148;-44
2022/02/18 08:29:46;;;;;;;11.73;3.35;;;8.70;99.90;;;;;;5024252;28;20025;-42
2022/02/18 08:32:12;;;;;;;13.32;3.58;;;8.70;99.90;;;;;;5024916;28;20091;-44
2022/02/18 08:34:38;;;;;;;15.40;3.55;;;8.70;99.90;;;;;;5023993;28;20017;-43
2022/02/18 08:37:03;;;;;;;12.18;2.95;;;8.80;99.90;;;;;;5024689;28;20076;-43
2022/02/18 08:39:29;;;;;;;12.68;3.08;;;8.80;99.90;;;;;;5024417;28;20794;-43
2022/02/18 08:41:54;;;;;;;17.02;3.35;;;8.90;99.90;;;;;;5024427;28;20028;-43
2022/02/18 08:44:20;;;;;;;11.30;2.80;;;8.90;99.90;;;;;;5028251;28;20056;-42
2022/02/18 08:46:46;;;;;;;7.55;2.90;;;8.90;99.90;;;;;;5028360;28;20488;-44
2022/02/18 08:49:11;;;;;;;10.38;3.00;;;8.90;99.90;;;;;;5027401;28;20045;-44
2022/02/18 08:51:38;;;;;;;10.63;2.97;;;9.00;99.90;;;;;;5027873;28;20017;-43
2022/02/18 08:54:03;;;;;;;11.10;3.38;;;9.00;99.90;;;;;;5027820;28;20025;-43
2022/02/18 08:56:30;;;;;;;12.70;3.60;;;9.00;99.90;;;;;;5027724;28;20027;-43
2022/02/18 08:58:56;;;;;;;13.00;3.83;;;9.00;99.90;;;;;;5028538;28;20069;-44
2022/02/18 09:01:24;;;;;;;9.15;3.15;;;9.10;99.90;;;;;;5027168;28;20055;-42
2022/02/18 09:03:49;;;;;;;10.05;3.17;;;9.10;99.90;;;;;;5028269;28;20026;-42
2022/02/18 09:06:14;;;;;;;10.63;3.00;;;9.10;99.90;;;;;;5027162;28;20025;-42
2022/02/18 09:08:40;;;;;;;9.68;2.75;;;9.20;99.90;;;;;;5027804;28;20473;-44
2022/02/18 09:11:05;;;;;;;7.03;2.72;;;9.20;99.90;;;;;;5028139;28;20017;-43
2022/02/18 09:13:31;;;;;;;10.73;3.22;;;9.20;99.90;;;;;;5027463;28;20041;-43
2022/02/18 09:15:56;;;;;;;9.20;3.38;;;9.30;99.90;;;;;;5026638;28;20120;-44
2022/02/18 09:18:23;;;;;;;11.23;3.90;;;9.40;99.90;;;;;;5027196;28;20044;-44
2022/02/18 09:20:49;;;;;;;8.88;3.35;;;9.40;99.90;;;;;;5027448;28;20529;-43
2022/02/18 09:23:15;;;;;;;5.57;2.47;;;9.40;99.90;;;;;;5026610;28;20116;-44
2022/02/18 09:25:41;;;;;;;7.50;3.10;;;9.50;99.90;;;;;;5027595;28;20017;-43
2022/02/18 09:28:07;;;;;;;6.53;2.13;;;9.50;99.90;;;;;;5027262;28;20032;-43
2022/02/18 09:30:34;;;;;;;7.75;2.90;;;9.60;99.90;;;;;;5026936;28;20026;-42
2022/02/18 09:33:00;;;;;;;6.13;2.25;;;9.60;99.90;;;;;;5026882;28;20025;-43
2022/02/18 09:35:26;;;;;;;4.97;2.33;;;9.70;99.90;;;;;;5027376;28;20029;-43
2022/02/18 09:37:53;;;;;;;4.63;2.00;;;9.80;99.90;;;;;;5026509;28;20558;-42
2022/02/18 09:40:19;;;;;;;4.35;1.90;;;9.80;99.90;;;;;;5027291;28;20017;-43
2022/02/18 09:42:46;;;;;;;6.88;2.60;;;9.90;99.90;;;;;;5027934;28;20103;-42
2022/02/18 09:45:13;;;;;;;6.85;2.83;;;9.90;99.90;;;;;;5026895;28;20822;-44
2022/02/18 09:47:42;;;;;;;4.35;2.40;;;9.90;99.90;;;;;;5027454;28;20013;-44
2022/02/18 09:50:10;;;;;;;4.80;1.90;;;10.00;99.90;;;;;;5027197;28;20033;-43
2022/02/18 09:52:36;;;;;;;5.38;2.33;;;10.00;99.90;;;;;;5025932;28;20043;-42
2022/02/18 09:55:02;;;;;;;4.00;2.10;;;10.10;99.90;;;;;;5026305;28;20076;-42
2022/02/18 09:57:28;;;;;;;2.92;1.73;;;10.10;99.90;;;;;;5026098;28;20056;-43
2022/02/18 09:59:54;;;;;;;3.17;1.60;;;10.10;99.90;;;;;;5026983;28;20021;-43
2022/02/18 10:02:19;;;;;;;5.30;1.83;;;10.10;99.90;;;;;;5025999;28;20639;-42
2022/02/18 10:04:45;;;;;;;4.63;2.00;;;10.20;99.90;;;;;;5026592;28;20025;-43
2022/02/18 10:07:11;;;;;;;2.80;2.03;;;10.20;99.90;;;;;;5026185;28;20512;-43
2022/02/18 10:09:42;;;;;;;1.75;1.45;;;10.20;99.90;;;;;;5027067;28;20112;-45
2022/02/18 10:12:09;;;;;;;3.72;2.05;;;10.30;99.90;;;;;;5025460;28;20556;-43
2022/02/18 10:14:58;;;;;;;4.50;2.30;;;10.30;99.90;;;;;;5026165;28;20108;-43
2022/02/18 10:17:35;;;;;;;3.45;1.90;;;10.40;99.90;;;;;;5026372;28;20132;-44
2022/02/18 10:20:03;;;;;;;3.75;1.75;;;10.40;99.90;;;;;;5026304;28;20028;-43
2022/02/18 10:22:28;;;;;;;2.83;2.00;;;10.50;99.90;;;;;;5026183;28;20041;-43
2022/02/18 10:24:55;;;;;;;2.78;1.63;;;10.50;99.90;;;;;;5026630;28;20047;-43
2022/02/18 10:27:22;;;;;;;2.55;1.60;;;10.60;99.90;;;;;;5025098;28;20036;-42
2022/02/18 10:29:59;;;;;;;3.35;1.58;;;10.60;99.90;;;;;;5026157;28;20469;-42
2022/02/18 10:32:27;;;;;;;2.22;1.48;;;10.70;99.90;;;;;;5025603;28;20640;-42
2022/02/18 10:34:58;;;;;;;2.40;1.75;;;10.70;99.90;;;;;;5026080;28;20522;-43
2022/02/18 10:37:27;;;;;;;2.22;1.30;;;10.70;99.90;;;;;;5025911;28;20034;-43
2022/02/18 10:40:14;;;;;;;4.40;1.50;;;10.80;99.90;;;;;;5025251;28;20032;-44
2022/02/18 10:42:41;;;;;;;2.13;1.40;;;10.80;99.90;;;;;;5026520;28;20425;-43
2022/02/18 10:45:12;;;;;;;2.00;1.10;;;10.80;99.90;;;;;;5025683;28;20022;-42
2022/02/18 10:47:39;;;;;;;2.33;1.42;;;10.90;99.90;;;;;;5025697;28;20116;-43
2022/02/18 10:50:15;;;;;;;2.15;1.38;;;10.90;99.90;;;;;;5025998;28;20030;-43
2022/02/18 10:52:41;;;;;;;2.08;1.60;;;10.90;99.90;;;;;;5006361;28;20045;-43
2022/02/18 10:55:07;;;;;;;2.40;1.48;;;11.00;99.90;;;;;;5020177;28;20030;-43
2022/02/18 10:57:33;;;;;;;2.08;1.35;;;11.00;99.90;;;;;;5026061;28;20036;-43
2022/02/18 11:00:11;;;;;;;2.97;1.38;;;11.10;99.90;;;;;;5025340;28;20033;-43
2022/02/18 11:02:42;;;;;;;1.80;1.67;;;11.10;99.90;;;;;;5025216;28;20029;-43
2022/02/18 11:05:24;;;;;;;3.03;1.38;;;11.10;99.90;;;;;;5024874;28;20059;-43
2022/02/18 11:07:50;;;;;;;1.90;1.40;;;11.20;99.90;;;;;;5025033;28;20150;-44
2022/02/18 11:10:32;;;;;;;2.40;1.50;;;11.20;99.90;;;;;;5025403;28;20030;-44
2022/02/18 11:12:58;;;;;;;2.42;1.42;;;11.30;99.90;;;;;;5026213;28;20033;-43
2022/02/18 11:15:26;;;;;;;3.25;1.40;;;11.30;99.90;;;;;;5024434;28;20622;-42
2022/02/18 11:17:53;;;;;;;2.17;1.52;;;11.30;99.90;;;;;;5025770;28;20087;-43
2022/02/18 11:20:18;;;;;;;1.52;1.30;;;11.30;99.90;;;;;;5025050;28;20638;-43
2022/02/18 11:22:45;;;;;;;1.98;1.42;;;11.30;99.90;;;;;;5025001;28;20037;-41
2022/02/18 11:25:14;;;;;;;1.50;1.40;;;11.40;99.90;;;;;;5025126;28;20018;-43
2022/02/18 11:27:39;;;;;;;1.83;1.70;;;11.40;99.90;;;;;;5026014;28;20110;-44
2022/02/18 11:30:06;;;;;;;1.98;1.50;;;11.40;99.90;;;;;;5024084;28;20060;-42
2022/02/18 11:32:43;;;;;;;2.97;1.45;;;11.50;99.90;;;;;;5025316;28;20025;-44
2022/02/18 11:35:37;;;;;;;1.80;1.40;;;11.50;99.90;;;;;;5025374;28;20076;-43
2022/02/18 11:38:16;;;;;;;1.63;1.40;;;11.60;99.90;;;;;;5015924;28;20041;-43
2022/02/18 11:40:52;;;;;;;1.63;1.52;;;11.70;99.90;;;;;;5024799;28;20037;-43
2022/02/18 11:43:27;;;;;;;1.20;1.10;;;11.70;99.90;;;;;;5024552;28;20049;-43
2022/02/18 11:46:03;;;;;;;2.53;1.60;;;11.70;99.90;;;;;;5025800;28;20025;-42
2022/02/18 11:48:43;;;;;;;1.90;1.38;;;11.80;99.90;;;;;;5025098;28;20759;-43
2022/02/18 11:51:14;;;;;;;1.85;1.17;;;11.90;99.90;;;;;;5024875;28;20076;-42
2022/02/18 11:53:44;;;;;;;1.20;1.08;;;11.90;99.90;;;;;;5025183;28;20473;-41
2022/02/18 11:56:11;;;;;;;1.13;1.02;;;11.90;99.90;;;;;;5025172;28;20025;-42
2022/02/18 11:59:00;;;;;;;1.65;1.00;;;11.90;99.90;;;;;;5024432;28;20034;-43
2022/02/18 12:01:55;;;;;;;1.40;0.82;;;12.00;99.90;;;;;;5025318;28;20027;-43
2022/02/18 12:04:21;;;;;;;1.65;0.88;;;12.00;99.90;;;;;;5024164;28;20044;-43
2022/02/18 12:07:15;;;;;;;0.82;0.80;;;12.10;99.90;;;;;;5024682;28;20603;-44
2022/02/18 12:09:53;;;;;;;0.80;0.80;;;12.10;99.90;;;;;;5025092;28;20065;-43
2022/02/18 12:12:22;;;;;;;0.80;0.80;;;12.20;99.90;;;;;;5024312;28;20455;-42
2022/02/18 12:14:48;;;;;;;1.10;0.95;;;12.20;99.90;;;;;;5025574;28;20471;-43
2022/02/18 12:17:14;;;;;;;1.85;1.00;;;12.30;99.90;;;;;;5024640;28;20060;-43
2022/02/18 12:19:39;;;;;;;1.20;1.10;;;12.30;99.90;;;;;;5028875;28;20160;-43
2022/02/18 12:22:05;;;;;;;0.80;0.80;;;12.30;99.90;;;;;;5029288;28;20508;-44
2022/02/18 12:24:30;;;;;;;1.65;0.80;;;12.30;99.90;;;;;;5028645;28;20037;-43
2022/02/18 12:27:24;;;;;;;1.45;1.10;;;12.40;99.90;;;;;;5028340;28;20357;-43
2022/02/18 12:29:55;;;;;;;2.05;1.02;;;12.40;99.90;;;;;;5019928;28;20038;-43
2022/02/18 12:32:21;;;;;;;2.38;1.10;;;12.40;99.90;;;;;;5027523;28;20021;-43
2022/02/18 12:35:03;;;;;;;1.35;1.00;;;12.40;99.90;;;;;;5028719;28;20029;-43
2022/02/18 12:37:29;;;;;;;1.40;1.00;;;12.40;99.90;;;;;;5020754;28;20760;-43
2022/02/18 12:39:56;;;;;;;1.13;1.00;;;12.50;99.90;;;;;;5028037;28;20084;-44
2022/02/18 12:42:25;;;;;;;0.80;0.80;;;12.50;99.90;;;;;;5027403;28;20048;-44
2022/02/18 12:44:56;;;;;;;1.13;0.95;;;12.50;99.90;;;;;;5028475;28;20022;-44
2022/02/18 12:47:32;;;;;;;1.40;1.25;;;12.50;99.90;;;;;;5027765;28;20021;-45
2022/02/18 12:50:00;;;;;;;1.42;1.20;;;12.50;99.90;;;;;;5028890;28;20052;-43